Time;durP1;ratioP1;P1;durP2;ratioP2;P2;SDS_P1;SDS_P2;PMS_P1;PMS_P2;Temp;Humidity;BMP_temperature;BMP_pressure;BME280_temperature;BME280_humidity;BME280_pressure;Samples;Min_cycle;Max_cycle;Signal;HPM_P1;HPM_P2
2023/09/25 00:02:26;;;;;;;2.97;2.10;;;;;;;23.56;65.80;98320.84;5010913;28;20576;-24
2023/09/25 00:04:53;;;;;;;2.50;2.00;;;;;;;23.57;65.44;98322.59;5004606;28;20697;-26
2023/09/25 00:07:20;;;;;;;2.40;2.00;;;;;;;23.58;65.37;98318.31;5009885;28;20316;-25
2023/09/25 00:09:46;;;;;;;2.20;2.00;;;;;;;23.58;65.60;98320.91;5007214;28;20199;-24
2023/09/25 00:12:13;;;;;;;3.17;2.20;;;;;;;23.58;65.55;98318.31;5010341;28;20660;-24
2023/09/25 00:14:40;;;;;;;2.10;1.90;;;;;;;23.58;65.88;98318.31;5000473;28;20206;-23
2023/09/25 00:17:07;;;;;;;3.40;1.97;;;;;;;23.57;65.95;98324.28;5008649;28;20203;-25
2023/09/25 00:19:33;;;;;;;3.30;2.13;;;;;;;23.57;65.73;98320.03;5020253;28;20257;-24
2023/09/25 00:22:00;;;;;;;3.80;1.90;;;;;;;23.58;65.56;98318.31;5012541;28;20214;-23
2023/09/25 00:24:27;;;;;;;2.47;1.97;;;;;;;23.57;65.94;98327.75;5007330;28;20207;-24
2023/09/25 00:26:53;;;;;;;2.83;2.23;;;;;;;23.57;65.81;98317.47;4998421;28;20305;-23
2023/09/25 00:29:20;;;;;;;3.47;2.13;;;;;;;23.57;65.72;98308.91;5012207;28;20240;-24
2023/09/25 00:31:47;;;;;;;3.00;2.23;;;;;;;23.57;65.66;98311.47;5005007;28;20214;-24
2023/09/25 00:34:14;;;;;;;3.20;2.30;;;;;;;23.56;65.71;98305.44;5012059;28;20259;-24
2023/09/25 00:36:41;;;;;;;3.17;2.20;;;;;;;23.56;65.62;98309.72;5006418;28;20206;-23
2023/09/25 00:39:08;;;;;;;2.33;1.97;;;;;;;23.56;66.03;98302.03;5005323;28;20246;-24
2023/09/25 00:41:34;;;;;;;2.30;1.80;;;;;;;23.55;65.78;98306.28;5013936;28;20201;-23
2023/09/25 00:44:01;;;;;;;2.80;2.30;;;;;;;23.56;65.80;98302.03;5014211;28;20210;-24
2023/09/25 00:46:28;;;;;;;2.87;1.90;;;;;;;23.56;66.04;98302.03;5014976;28;20233;-29
2023/09/25 00:48:55;;;;;;;2.77;1.93;;;;;;;23.56;65.80;98300.31;4983605;28;20244;-25
2023/09/25 00:51:21;;;;;;;2.80;1.80;;;;;;;23.56;66.01;98308.00;5006654;28;20273;-24
2023/09/25 00:53:48;;;;;;;2.73;2.00;;;;;;;23.57;65.85;98309.78;4994794;28;20208;-28
2023/09/25 00:56:15;;;;;;;2.20;2.00;;;;;;;23.57;65.92;98299.50;5004618;28;20580;-24
2023/09/25 00:58:41;;;;;;;2.83;2.10;;;;;;;23.54;66.14;98289.16;4990164;28;20704;-24
2023/09/25 01:01:08;;;;;;;2.47;1.77;;;;;;;23.60;65.75;98299.63;4989904;28;20203;-23
2023/09/25 01:03:35;;;;;;;3.73;1.90;;;;;;;23.61;65.85;98296.22;5008240;28;20210;-23
2023/09/25 01:06:04;;;;;;;1.90;1.80;;;;;;;23.62;65.79;98290.25;5006078;28;20229;-23
2023/09/25 01:08:31;;;;;;;2.50;1.73;;;;;;;23.63;65.90;98291.13;4998431;28;20272;-24
2023/09/25 01:10:58;;;;;;;3.00;2.17;;;;;;;23.64;65.98;98285.16;5020257;28;20198;-24
2023/09/25 01:13:25;;;;;;;3.87;2.00;;;;;;;23.64;65.65;98288.63;5006564;28;20209;-23
2023/09/25 01:15:52;;;;;;;2.17;1.97;;;;;;;23.64;65.80;98283.47;5017392;28;20205;-24
2023/09/25 01:18:19;;;;;;;3.27;2.03;;;;;;;23.65;65.73;98281.81;4998640;28;20223;-24
2023/09/25 01:20:45;;;;;;;2.50;1.97;;;;;;;23.66;65.59;98278.41;5008044;28;20563;-30
2023/09/25 01:23:12;;;;;;;2.00;1.80;;;;;;;23.67;65.76;98285.28;5012477;28;20206;-24
2023/09/25 01:25:39;;;;;;;2.17;1.73;;;;;;;23.66;65.83;98281.84;5007161;28;20222;-25
2023/09/25 01:28:06;;;;;;;2.33;2.13;;;;;;;23.67;65.74;98282.69;5005102;28;20226;-29
2023/09/25 01:30:33;;;;;;;2.10;1.90;;;;;;;23.67;65.66;98282.69;5015592;28;20205;-24
2023/09/25 01:32:59;;;;;;;2.13;1.90;;;;;;;23.67;65.39;98281.00;5017582;28;20635;-24
2023/09/25 01:35:27;;;;;;;2.33;1.83;;;;;;;23.65;65.60;98272.38;5008765;28;20248;-23
2023/09/25 01:37:57;;;;;;;2.10;1.90;;;;;;;23.46;65.64;98244.38;5013330;28;20712;-23
2023/09/25 01:40:24;;;;;;;3.03;1.93;;;;;;;23.65;65.61;98274.09;4985174;28;20209;-24
2023/09/25 01:42:51;;;;;;;1.70;1.60;;;;;;;23.64;65.49;98278.34;5005461;28;20210;-28
2023/09/25 01:45:18;;;;;;;1.87;1.73;;;;;;;23.64;65.57;98283.47;5004016;28;20222;-25
2023/09/25 01:47:49;;;;;;;3.77;1.83;;;;;;;23.64;65.66;98286.06;5013238;28;20276;-25
2023/09/25 01:50:21;;;;;;;2.20;1.67;;;;;;;23.64;65.90;98278.34;5011767;28;20204;-23
2023/09/25 01:52:51;;;;;;;2.10;1.90;;;;;;;23.64;65.50;98274.91;5019432;28;20257;-24
2023/09/25 01:55:17;;;;;;;2.60;1.93;;;;;;;23.64;65.85;98277.47;5004978;28;20712;-24
2023/09/25 01:57:44;;;;;;;2.30;1.70;;;;;;;23.64;65.83;98283.47;5008461;28;20225;-25
2023/09/25 02:00:12;;;;;;;1.80;1.70;;;;;;;23.63;65.91;98279.19;5016132;28;20304;-25
2023/09/25 02:02:40;;;;;;;2.17;1.90;;;;;;;23.59;65.99;98271.34;5019753;28;20193;-24
2023/09/25 02:05:07;;;;;;;2.17;1.70;;;;;;;23.64;65.85;98280.91;5013986;28;20264;-23
2023/09/25 02:07:34;;;;;;;2.50;2.00;;;;;;;23.64;65.96;98277.47;5009205;28;20233;-24
2023/09/25 02:10:01;;;;;;;1.90;1.70;;;;;;;23.63;65.79;98271.50;5011526;28;20241;-24
2023/09/25 02:12:27;;;;;;;2.33;2.10;;;;;;;23.64;65.83;98274.91;5008368;28;20203;-24
2023/09/25 02:14:57;;;;;;;1.97;1.83;;;;;;;23.64;65.66;98272.34;5004846;28;20632;-24
2023/09/25 02:17:24;;;;;;;2.00;1.60;;;;;;;23.64;65.71;98272.34;5018124;28;20604;-24
2023/09/25 02:19:52;;;;;;;2.00;1.80;;;;;;;23.62;65.43;98269.72;5004656;28;20264;-31
2023/09/25 02:22:18;;;;;;;2.27;1.80;;;;;;;23.62;65.76;98269.72;5004061;28;20264;-23
2023/09/25 02:24:45;;;;;;;2.23;2.00;;;;;;;23.62;65.85;98263.75;5013448;28;20261;-25
2023/09/25 02:27:12;;;;;;;2.03;1.83;;;;;;;23.62;65.82;98262.03;5004527;28;20309;-25
2023/09/25 02:29:38;;;;;;;2.63;1.77;;;;;;;23.60;66.00;98258.56;5016420;28;20206;-24
2023/09/25 02:32:05;;;;;;;2.00;1.90;;;;;;;23.61;65.82;98256.84;5009327;28;20264;-25
2023/09/25 02:34:32;;;;;;;2.00;1.80;;;;;;;23.61;65.72;98256.84;5016434;28;20253;-25
2023/09/25 02:36:59;;;;;;;2.37;1.93;;;;;;;23.61;65.73;98254.28;5010603;28;20198;-24
2023/09/25 02:39:25;;;;;;;2.40;1.90;;;;;;;23.60;65.94;98242.28;4999504;28;20210;-24
2023/09/25 02:41:52;;;;;;;1.90;1.80;;;;;;;23.60;65.68;98240.59;5005835;28;20209;-23
2023/09/25 02:44:18;;;;;;;2.00;1.80;;;;;;;23.61;65.75;98233.75;5000965;28;20257;-24
2023/09/25 02:46:45;;;;;;;2.10;1.90;;;;;;;23.61;65.82;98238.88;5011919;28;20222;-23
2023/09/25 02:49:12;;;;;;;2.00;1.80;;;;;;;23.61;65.83;98239.75;5006385;28;20285;-25
2023/09/25 02:51:38;;;;;;;1.90;1.80;;;;;;;23.61;65.77;98233.75;5010421;28;20202;-24
2023/09/25 02:54:05;;;;;;;2.67;1.93;;;;;;;23.61;65.42;98234.63;5007775;28;20225;-25
2023/09/25 02:56:31;;;;;;;1.83;1.57;;;;;;;23.61;65.76;98234.63;5015507;28;20198;-23
2023/09/25 02:58:58;;;;;;;2.00;1.80;;;;;;;23.60;65.76;98230.31;4998150;28;20705;-24
2023/09/25 03:01:25;;;;;;;2.43;1.50;;;;;;;23.60;65.47;98237.13;5010904;28;20739;-23
2023/09/25 03:03:52;;;;;;;1.80;1.70;;;;;;;23.60;65.88;98229.44;5003965;28;20625;-31
2023/09/25 03:06:19;;;;;;;1.90;1.70;;;;;;;23.60;65.65;98234.56;5007464;28;20227;-25
2023/09/25 03:08:45;;;;;;;1.97;1.83;;;;;;;23.60;65.92;98234.56;5011870;28;20656;-23
2023/09/25 03:11:12;;;;;;;2.03;1.83;;;;;;;23.59;65.67;98225.16;5012178;28;20202;-30
2023/09/25 03:13:39;;;;;;;1.80;1.70;;;;;;;23.57;65.61;98231.91;5009444;28;20252;-23
2023/09/25 03:16:15;;;;;;;1.90;1.60;;;;;;;23.59;65.87;98226.00;5006256;28;20245;-23
2023/09/25 03:18:41;;;;;;;1.90;1.70;;;;;;;23.60;66.10;98214.03;5010632;28;20226;-23
2023/09/25 03:21:12;;;;;;;2.07;1.80;;;;;;;23.59;65.59;98217.44;5010158;28;20230;-24
2023/09/25 03:23:40;;;;;;;2.00;1.80;;;;;;;23.59;65.54;98218.28;5010654;28;20194;-23
2023/09/25 03:26:16;;;;;;;1.93;1.80;;;;;;;23.59;64.96;98218.28;4998201;28;20300;-23
2023/09/25 03:28:43;;;;;;;2.50;2.10;;;;;;;23.53;57.33;98205.28;5006122;28;20233;-24
2023/09/25 03:31:11;;;;;;;4.03;2.60;;;;;;;23.48;53.04;98206.84;5011456;28;20206;-23
2023/09/25 03:33:38;;;;;;;4.23;2.83;;;;;;;23.43;51.45;98210.94;5011278;28;20755;-23
2023/09/25 03:36:05;;;;;;;3.07;2.73;;;;;;;23.38;49.23;98213.34;5005710;28;20191;-23
2023/09/25 03:38:32;;;;;;;9.57;2.93;;;;;;;23.32;49.63;98205.47;5011102;28;20707;-23
2023/09/25 03:40:59;;;;;;;3.10;2.63;;;;;;;23.31;49.61;98202.84;5013814;28;20209;-23
2023/09/25 03:43:26;;;;;;;3.00;2.70;;;;;;;23.30;50.15;98207.09;5016246;28;20198;-27
2023/09/25 03:45:53;;;;;;;3.40;2.90;;;;;;;23.30;51.40;98203.69;5018247;28;20222;-23
2023/09/25 03:48:19;;;;;;;4.77;3.07;;;;;;;23.30;52.59;98201.13;5014673;28;20255;-24
2023/09/25 03:50:46;;;;;;;6.37;2.70;;;;;;;23.30;53.84;98201.13;5010655;28;20614;-24
2023/09/25 03:53:13;;;;;;;4.03;2.90;;;;;;;23.30;54.74;98201.13;5007581;28;20248;-25
2023/09/25 03:55:39;;;;;;;6.40;2.50;;;;;;;23.31;55.47;98188.34;5007704;28;20198;-24
2023/09/25 03:58:06;;;;;;;14.83;3.17;;;;;;;23.31;55.42;98183.22;5002795;28;20230;-25
2023/09/25 04:00:33;;;;;;;7.27;2.63;;;;;;;23.32;55.86;98184.94;5007884;28;20201;-25
2023/09/25 04:02:59;;;;;;;7.67;2.70;;;;;;;23.32;56.15;98186.63;5010599;28;20206;-25
2023/09/25 04:05:26;;;;;;;6.20;3.00;;;;;;;23.33;56.26;98183.25;5012744;28;20441;-25
2023/09/25 04:07:53;;;;;;;12.90;3.23;;;;;;;23.33;56.40;98188.38;5019941;28;20225;-26
2023/09/25 04:10:20;;;;;;;5.37;2.77;;;;;;;23.33;56.87;98185.81;5016799;28;20201;-25
2023/09/25 04:12:46;;;;;;;9.43;3.70;;;;;;;23.35;56.95;98186.72;5015439;28;20198;-25
2023/09/25 04:15:14;;;;;;;7.83;3.40;;;;;;;23.34;57.27;98193.56;5017716;28;20205;-25
2023/09/25 04:17:40;;;;;;;9.03;3.10;;;;;;;23.34;57.62;98193.56;5005933;28;20225;-23
2023/09/25 04:20:09;;;;;;;15.40;3.70;;;;;;;23.35;57.97;98187.59;5007972;28;20198;-23
2023/09/25 04:22:37;;;;;;;7.03;3.00;;;;;;;23.33;57.54;98191.81;5002719;28;20260;-23
2023/09/25 04:25:08;;;;;;;8.47;2.90;;;;;;;23.35;57.81;98202.13;5011897;28;20683;-23
2023/09/25 04:27:38;;;;;;;5.33;2.77;;;;;;;23.37;58.09;98195.34;5015080;28;20230;-23
2023/09/25 04:30:08;;;;;;;15.07;3.67;;;;;;;23.38;58.52;98186.81;5014931;28;20229;-23
2023/09/25 04:32:35;;;;;;;10.83;3.33;;;;;;;23.38;58.53;98191.94;5012949;28;20224;-23
2023/09/25 04:35:04;;;;;;;6.50;3.27;;;;;;;23.38;58.29;98188.53;5010196;28;20202;-25
2023/09/25 04:37:30;;;;;;;9.80;3.40;;;;;;;23.39;58.60;98188.59;5013150;28;20735;-24
2023/09/25 04:39:57;;;;;;;7.53;3.50;;;;;;;23.38;58.17;98187.69;5004974;28;20292;-23
2023/09/25 04:42:24;;;;;;;10.73;3.20;;;;;;;23.39;58.39;98191.16;5009855;28;20195;-24
2023/09/25 04:44:50;;;;;;;10.20;3.50;;;;;;;23.35;58.69;98182.47;5020218;28;20634;-23
2023/09/25 04:47:17;;;;;;;7.40;3.23;;;;;;;23.39;58.51;98183.44;5009044;28;20225;-24
2023/09/25 04:49:43;;;;;;;9.97;3.33;;;;;;;23.40;58.76;98187.75;5017937;28;20245;-23
2023/09/25 04:52:10;;;;;;;11.60;3.27;;;;;;;23.41;58.65;98189.47;5014260;28;20329;-25
2023/09/25 04:54:37;;;;;;;7.60;2.83;;;;;;;23.41;57.08;98194.63;5007268;28;20265;-23
2023/09/25 04:57:04;;;;;;;3.70;3.00;;;;;;;23.39;54.86;98197.13;5003637;28;20674;-23
2023/09/25 04:59:30;;;;;;;5.53;2.93;;;;;;;23.38;52.90;98187.69;5006423;28;20202;-25
2023/09/25 05:01:57;;;;;;;4.40;2.80;;;;;;;23.38;52.16;98189.38;5001807;28;20198;-23
2023/09/25 05:04:23;;;;;;;4.73;2.70;;;;;;;23.38;52.09;98191.94;5013605;28;20260;-23
2023/09/25 05:06:50;;;;;;;5.17;2.63;;;;;;;23.38;52.10;98194.50;5008972;28;20222;-23
2023/09/25 05:09:17;;;;;;;5.73;2.90;;;;;;;23.38;52.33;98197.09;5005506;28;20226;-24
2023/09/25 05:11:43;;;;;;;5.13;2.93;;;;;;;23.38;52.26;98198.78;5013925;28;20322;-28
2023/09/25 05:14:10;;;;;;;9.70;3.70;;;;;;;23.37;52.03;98195.34;5014044;28;20257;-24
2023/09/25 05:16:36;;;;;;;20.53;4.53;;;;;;;23.36;51.46;98191.91;5011570;28;20256;-24
2023/09/25 05:19:03;;;;;;;19.50;4.23;;;;;;;23.35;50.32;98202.13;5006405;28;20222;-24
2023/09/25 05:21:30;;;;;;;8.40;3.30;;;;;;;23.33;49.71;98196.94;5012139;28;20260;-23
2023/09/25 05:23:57;;;;;;;9.20;2.93;;;;;;;23.33;48.81;98206.34;5010986;28;20285;-26
2023/09/25 05:26:24;;;;;;;6.80;3.17;;;;;;;23.31;48.43;98202.84;5007758;28;20226;-24
2023/09/25 05:28:50;;;;;;;5.00;2.97;;;;;;;23.30;48.68;98203.69;5005343;28;20234;-24
2023/09/25 05:31:17;;;;;;;6.27;2.50;;;;;;;23.30;48.74;98207.09;5000172;28;20207;-24
2023/09/25 05:33:44;;;;;;;3.53;2.90;;;;;;;23.30;49.49;98206.25;5000209;28;20206;-22
2023/09/25 05:36:10;;;;;;;6.03;2.87;;;;;;;23.29;50.03;98207.03;5013521;28;20217;-29
2023/09/25 05:38:37;;;;;;;4.47;2.67;;;;;;;23.30;50.58;98209.66;5013162;28;20761;-23
2023/09/25 05:41:04;;;;;;;5.13;2.77;;;;;;;23.29;51.20;98210.47;5012639;28;20610;-23
2023/09/25 05:43:30;;;;;;;4.17;2.67;;;;;;;23.30;51.88;98211.38;5009700;28;20210;-23
2023/09/25 05:45:57;;;;;;;3.83;2.90;;;;;;;23.31;52.59;98210.53;5010206;28;20253;-24
2023/09/25 05:48:24;;;;;;;8.53;3.17;;;;;;;23.30;52.06;98207.09;5012990;28;20250;-24
2023/09/25 05:50:52;;;;;;;6.87;3.17;;;;;;;23.31;52.79;98213.97;5001379;28;20237;-24
2023/09/25 05:53:19;;;;;;;6.83;2.80;;;;;;;23.32;53.43;98217.41;5017732;28;20201;-24
2023/09/25 05:55:47;;;;;;;7.90;3.20;;;;;;;23.31;51.32;98215.66;5018852;28;20206;-23
2023/09/25 05:58:14;;;;;;;6.43;3.10;;;;;;;23.28;50.09;98213.88;5005773;28;20218;-23
2023/09/25 06:00:44;;;;;;;7.53;3.33;;;;;;;23.29;49.94;98212.16;5019133;28;20256;-24
2023/09/25 06:03:11;;;;;;;5.80;3.00;;;;;;;23.28;50.62;98219.00;5005644;28;20230;-23
2023/09/25 06:05:38;;;;;;;8.33;2.90;;;;;;;23.29;51.68;98225.88;5011993;28;20583;-24
2023/09/25 06:08:06;;;;;;;7.83;3.20;;;;;;;23.29;52.37;98225.88;5012543;28;20230;-25
2023/09/25 06:10:32;;;;;;;9.17;3.10;;;;;;;23.30;52.67;98229.31;5012734;28;20206;-25
2023/09/25 06:13:02;;;;;;;9.87;3.20;;;;;;;23.30;52.90;98225.03;5017132;28;20205;-23
2023/09/25 06:15:31;;;;;;;5.23;3.00;;;;;;;23.26;53.01;98225.78;5019081;28;20244;-25
2023/09/25 06:17:59;;;;;;;6.67;3.23;;;;;;;23.31;53.31;98231.94;4996153;28;20218;-30
2023/09/25 06:20:26;;;;;;;9.27;2.97;;;;;;;23.32;53.86;98240.47;5016856;28;20202;-25
2023/09/25 06:23:00;;;;;;;6.73;3.27;;;;;;;23.31;54.21;98236.19;5005520;28;20237;-27
2023/09/25 06:25:29;;;;;;;11.30;3.57;;;;;;;23.31;54.63;98236.19;5013280;28;20198;-24
2023/09/25 06:27:56;;;;;;;6.90;3.10;;;;;;;23.32;54.84;98233.69;5019408;28;20251;-24
2023/09/25 06:30:23;;;;;;;8.80;3.30;;;;;;;23.32;55.02;98232.78;5006493;28;20265;-23
2023/09/25 06:32:49;;;;;;;11.17;3.63;;;;;;;23.33;55.39;98230.28;5011330;28;20216;-23
2023/09/25 06:35:17;;;;;;;11.00;3.13;;;;;;;23.35;55.43;98232.91;5014183;28;20225;-24
2023/09/25 06:37:44;;;;;;;10.10;4.07;;;;;;;23.35;55.67;98233.78;5010813;28;20214;-24
2023/09/25 06:40:11;;;;;;;14.10;3.67;;;;;;;23.36;55.69;98238.06;5007245;28;20253;-25
2023/09/25 06:42:38;;;;;;;11.60;3.23;;;;;;;23.36;55.89;98234.66;4997940;28;20206;-25
2023/09/25 06:45:05;;;;;;;8.73;3.13;;;;;;;23.38;55.85;98237.28;5012927;28;20194;-24
2023/09/25 06:47:33;;;;;;;10.77;3.33;;;;;;;23.38;56.08;98234.72;5013922;28;20229;-24
2023/09/25 06:49:59;;;;;;;13.20;3.67;;;;;;;23.38;56.00;98234.72;5007591;28;20198;-24
2023/09/25 06:52:26;;;;;;;11.83;3.30;;;;;;;23.38;56.08;98240.69;4999409;28;20203;-23
2023/09/25 06:54:53;;;;;;;8.50;2.83;;;;;;;23.38;56.25;98242.41;5019280;28;20198;-24
2023/09/25 06:57:19;;;;;;;8.13;3.07;;;;;;;23.38;56.54;98249.28;5012808;28;20198;-24
2023/09/25 06:59:46;;;;;;;6.70;3.07;;;;;;;23.38;56.62;98245.81;5008123;28;20208;-24
2023/09/25 07:02:13;;;;;;;7.80;3.27;;;;;;;23.38;56.54;98247.53;5011707;28;20226;-24
2023/09/25 07:04:39;;;;;;;7.80;3.40;;;;;;;23.37;56.97;98246.66;5009316;28;20288;-24
2023/09/25 07:07:08;;;;;;;9.07;3.20;;;;;;;23.38;57.17;98239.00;5019728;28;20237;-24
2023/09/25 07:09:34;;;;;;;5.23;2.73;;;;;;;23.39;57.26;98239.88;5011484;28;20211;-23
2023/09/25 07:12:01;;;;;;;11.07;3.60;;;;;;;23.39;57.61;98240.75;5003711;28;20244;-24
2023/09/25 07:14:28;;;;;;;6.17;3.00;;;;;;;23.39;57.57;98238.19;5011225;28;20214;-24
2023/09/25 07:16:54;;;;;;;11.63;3.10;;;;;;;23.36;57.59;98232.09;5014839;28;20622;-23
2023/09/25 07:19:21;;;;;;;7.87;3.23;;;;;;;23.41;57.50;98242.50;5004758;28;20330;-24
2023/09/25 07:21:48;;;;;;;7.63;3.30;;;;;;;23.39;55.85;98239.88;5011988;28;20285;-24
2023/09/25 07:24:14;;;;;;;9.13;3.80;;;;;;;23.41;55.73;98245.06;5004808;28;20727;-23
2023/09/25 07:26:43;;;;;;;8.60;3.13;;;;;;;23.40;56.49;98244.19;4991644;28;20222;-24
2023/09/25 07:29:10;;;;;;;6.93;3.27;;;;;;;23.40;56.96;98254.44;4997513;28;20229;-23
2023/09/25 07:31:56;;;;;;;11.13;2.83;;;;;;;23.41;57.34;98253.63;4994957;28;20203;-23
2023/09/25 07:34:23;;;;;;;8.70;3.47;;;;;;;23.41;57.47;98248.50;4997651;28;20277;-23
2023/09/25 07:36:49;;;;;;;9.00;3.20;;;;;;;23.41;57.80;98248.50;4997528;28;20291;-22
2023/09/25 07:39:22;;;;;;;6.13;3.10;;;;;;;23.43;58.22;98249.41;4993449;28;20262;-23
2023/09/25 07:41:52;;;;;;;8.87;3.00;;;;;;;23.42;58.43;98245.97;5001361;28;20778;-24
2023/09/25 07:44:19;;;;;;;6.80;2.97;;;;;;;23.43;58.58;98246.84;4998236;28;20583;-23
2023/09/25 07:46:47;;;;;;;5.93;3.13;;;;;;;23.46;58.65;98251.19;4999828;28;20222;-23
2023/09/25 07:49:14;;;;;;;17.50;3.77;;;;;;;23.46;59.00;98249.53;4995704;28;20222;-23
2023/09/25 07:51:41;;;;;;;11.40;3.17;;;;;;;23.47;59.32;98246.13;4993408;28;20217;-23
2023/09/25 07:54:08;;;;;;;14.83;3.50;;;;;;;23.49;59.34;98246.16;4996348;28;20213;-23
2023/09/25 07:56:34;;;;;;;10.73;3.27;;;;;;;23.50;59.24;98251.34;4998638;28;20217;-23
2023/09/25 07:59:02;;;;;;;12.40;3.60;;;;;;;23.52;59.37;98253.97;4993828;28;20254;-24
2023/09/25 08:01:29;;;;;;;8.47;3.17;;;;;;;23.52;59.49;98257.41;5003482;28;20223;-23
2023/09/25 08:03:57;;;;;;;11.83;3.87;;;;;;;23.53;59.76;98251.47;5009177;28;20266;-23
2023/09/25 08:06:27;;;;;;;10.87;3.70;;;;;;;23.52;60.10;98249.72;5011487;28;20205;-24
2023/09/25 08:08:57;;;;;;;7.27;2.70;;;;;;;23.53;60.08;98255.75;5003344;28;20234;-23
2023/09/25 08:11:24;;;;;;;13.77;3.30;;;;;;;23.53;60.09;98250.59;5007457;28;20210;-24
2023/09/25 08:13:53;;;;;;;8.77;3.23;;;;;;;23.52;60.20;98254.84;5011031;28;20661;-24
2023/09/25 08:16:22;;;;;;;8.00;3.23;;;;;;;23.53;60.09;98255.75;5011182;28;20260;-24
2023/09/25 08:18:49;;;;;;;7.43;3.10;;;;;;;23.48;60.39;98244.44;5007095;28;20218;-24
2023/09/25 08:21:16;;;;;;;9.03;3.10;;;;;;;23.52;60.25;98252.28;5008397;28;20283;-24
2023/09/25 08:23:42;;;;;;;7.20;3.27;;;;;;;23.53;60.50;98253.16;5011206;28;20207;-23
2023/09/25 08:26:09;;;;;;;6.13;3.00;;;;;;;23.34;60.57;98219.22;5010108;28;20252;-24
2023/09/25 08:28:36;;;;;;;5.83;2.97;;;;;;;23.54;60.64;98260.03;4991538;28;20276;-23
2023/09/25 08:31:02;;;;;;;4.80;3.13;;;;;;;23.55;60.66;98256.63;5004207;28;20211;-23
2023/09/25 08:33:29;;;;;;;6.97;3.00;;;;;;;23.55;60.56;98256.63;5007443;28;20300;-24
2023/09/25 08:35:56;;;;;;;6.37;2.60;;;;;;;23.55;60.88;98252.38;5009301;28;20260;-23
2023/09/25 08:38:22;;;;;;;6.27;3.57;;;;;;;23.55;60.96;98260.09;5003434;28;20222;-24
2023/09/25 08:40:49;;;;;;;7.40;3.00;;;;;;;23.57;60.84;98255.00;4991783;28;20199;-23
2023/09/25 08:43:16;;;;;;;4.60;2.70;;;;;;;23.57;60.82;98255.00;5001350;28;20230;-24
2023/09/25 08:45:47;;;;;;;3.83;2.23;;;;;;;23.51;61.33;98242.84;5004762;28;20206;-35
2023/09/25 08:48:14;;;;;;;4.87;2.47;;;;;;;23.56;61.34;98253.28;4958321;28;20373;-25
2023/09/25 08:50:40;;;;;;;7.17;2.73;;;;;;;23.56;61.00;98249.00;5009066;28;20221;-24
2023/09/25 08:53:07;;;;;;;7.53;2.80;;;;;;;23.37;61.04;98226.13;4996642;28;20198;-24
2023/09/25 08:55:34;;;;;;;4.50;2.63;;;;;;;23.56;61.28;98254.13;4988776;28;20261;-23
2023/09/25 08:58:01;;;;;;;3.90;2.53;;;;;;;23.52;61.32;98254.84;5010999;28;20242;-22
2023/09/25 09:00:29;;;;;;;5.37;2.80;;;;;;;23.56;61.27;98250.72;4994755;28;20210;-24
2023/09/25 09:02:56;;;;;;;5.87;2.80;;;;;;;23.55;61.45;98247.25;5010986;28;20643;-23
2023/09/25 09:05:23;;;;;;;4.40;2.57;;;;;;;23.56;61.20;98241.28;5008430;28;20202;-23
2023/09/25 09:08:03;;;;;;;4.83;2.50;;;;;;;23.56;61.22;98236.16;5008370;28;20633;-24
2023/09/25 09:10:34;;;;;;;5.23;2.40;;;;;;;23.56;61.26;98241.28;5011449;28;20657;-23
2023/09/25 09:13:01;;;;;;;5.47;2.20;;;;;;;23.57;61.49;98243.06;5014203;28;20229;-23
2023/09/25 09:15:30;;;;;;;2.87;2.10;;;;;;;23.58;61.43;98242.22;5007672;28;20202;-24
2023/09/25 09:17:57;;;;;;;4.27;2.37;;;;;;;23.58;61.80;98241.34;4987540;28;20218;-24
2023/09/25 09:20:37;;;;;;;3.90;2.50;;;;;;;23.58;61.61;98237.09;5003517;28;20576;-23
2023/09/25 09:23:06;;;;;;;2.87;2.20;;;;;;;23.58;61.80;98233.66;5004629;28;20280;-23
2023/09/25 09:25:33;;;;;;;5.80;2.40;;;;;;;23.59;61.88;98230.28;5012799;28;20309;-24
2023/09/25 09:28:01;;;;;;;4.07;2.50;;;;;;;23.59;61.92;98238.81;4994799;28;20230;-23
2023/09/25 09:30:28;;;;;;;3.77;2.43;;;;;;;23.57;61.91;98232.78;4988824;28;20284;-24
2023/09/25 09:32:54;;;;;;;6.73;2.40;;;;;;;23.57;61.61;98226.78;5004669;28;20677;-23
2023/09/25 09:35:24;;;;;;;2.77;2.27;;;;;;;23.57;61.75;98225.09;4994388;28;20198;-24
2023/09/25 09:37:52;;;;;;;4.93;2.53;;;;;;;23.56;62.11;98228.47;5011149;28;20274;-22
2023/09/25 09:40:26;;;;;;;3.77;2.37;;;;;;;23.58;62.10;98215.69;5004731;28;20257;-23
2023/09/25 09:42:53;;;;;;;3.53;2.30;;;;;;;23.57;62.12;98209.69;5004864;28;20224;-22
2023/09/25 09:45:20;;;;;;;3.63;2.33;;;;;;;23.58;62.28;98207.97;5012486;28;20241;-23
2023/09/25 09:47:48;;;;;;;3.67;2.20;;;;;;;23.58;62.19;98208.88;5004040;28;20234;-23
2023/09/25 09:50:21;;;;;;;2.40;1.90;;;;;;;23.58;62.34;98200.28;5012296;28;20230;-23
2023/09/25 09:52:48;;;;;;;3.50;2.43;;;;;;;23.59;62.14;98204.63;5010792;28;20233;-23
2023/09/25 09:55:15;;;;;;;3.47;2.00;;;;;;;23.59;61.98;98204.63;5009748;28;20605;-23
2023/09/25 09:57:42;;;;;;;2.83;2.00;;;;;;;23.59;62.32;98195.19;5010380;28;20759;-24
2023/09/25 10:00:09;;;;;;;5.07;2.17;;;;;;;23.54;62.33;98186.50;5012930;28;20202;-23
2023/09/25 10:02:36;;;;;;;4.00;2.00;;;;;;;23.59;62.23;98192.63;4993795;28;20202;-23
2023/09/25 10:05:03;;;;;;;3.03;2.20;;;;;;;23.55;62.56;98185.69;4987454;28;20661;-23
2023/09/25 10:07:30;;;;;;;2.93;2.17;;;;;;;23.58;62.26;98190.91;4994202;28;20230;-24
2023/09/25 10:09:58;;;;;;;2.87;2.17;;;;;;;23.58;62.50;98193.47;5010082;28;20230;-22
2023/09/25 10:12:43;;;;;;;2.40;2.20;;;;;;;23.57;62.29;98186.59;5012474;28;20240;-23
2023/09/25 10:15:12;;;;;;;2.93;2.17;;;;;;;23.57;62.29;98185.72;5011236;28;20202;-23
2023/09/25 10:17:40;;;;;;;3.03;2.33;;;;;;;23.57;62.48;98185.72;5010938;28;20666;-23
2023/09/25 10:20:32;;;;;;;2.30;2.10;;;;;;;23.57;62.51;98175.47;5009986;28;20616;-23
2023/09/25 10:23:09;;;;;;;3.50;2.30;;;;;;;23.56;62.90;98176.28;4998499;28;20202;-23
2023/09/25 10:25:55;;;;;;;2.87;2.30;;;;;;;23.57;63.01;98173.78;5003894;28;20653;-23
2023/09/25 10:28:29;;;;;;;3.23;2.40;;;;;;;23.57;63.24;98176.34;5027826;23;20206;-24
2023/09/25 10:30:59;;;;;;;3.90;2.37;;;;;;;23.58;63.45;98172.06;5018215;28;20210;-23
2023/09/25 10:33:31;;;;;;;6.80;2.70;;;;;;;23.59;63.23;98166.13;5022998;28;20308;-23
2023/09/25 10:36:04;;;;;;;7.73;2.90;;;;;;;23.60;63.42;98160.16;5028812;28;20305;-24
2023/09/25 10:38:33;;;;;;;4.90;2.63;;;;;;;23.60;63.48;98163.59;5023053;28;20227;-23
2023/09/25 10:41:02;;;;;;;6.70;2.67;;;;;;;23.61;63.49;98159.31;5007770;28;20203;-24
2023/09/25 10:43:28;;;;;;;6.73;2.47;;;;;;;23.60;62.59;98161.03;4997598;28;20265;-24
2023/09/25 10:45:55;;;;;;;4.50;2.40;;;;;;;23.60;62.91;98158.47;4992259;28;20284;-24
2023/09/25 10:48:25;;;;;;;8.60;2.97;;;;;;;23.60;63.04;98158.47;5009188;28;20222;-22
2023/09/25 10:50:51;;;;;;;10.67;3.80;;;;;;;23.60;63.55;98145.66;5000300;28;20210;-27
2023/09/25 10:53:18;;;;;;;8.87;2.77;;;;;;;23.56;63.42;98145.50;4995187;28;20207;-22
2023/09/25 10:55:47;;;;;;;10.57;3.27;;;;;;;23.61;63.49;98146.50;5003665;28;20206;-23
2023/09/25 10:58:14;;;;;;;6.30;3.00;;;;;;;23.61;63.71;98156.75;5000646;28;20202;-23
2023/09/25 11:00:41;;;;;;;8.87;2.97;;;;;;;23.62;63.77;98154.25;4997538;28;20576;-23
2023/09/25 11:03:08;;;;;;;7.43;3.17;;;;;;;23.62;63.46;98146.53;5000656;28;20244;-24
2023/09/25 11:05:36;;;;;;;4.07;2.27;;;;;;;23.63;63.78;98144.84;5003198;28;20211;-24
2023/09/25 11:08:04;;;;;;;6.07;2.83;;;;;;;23.65;63.57;98154.34;5006694;28;20640;-25
2023/09/25 11:10:32;;;;;;;5.97;2.60;;;;;;;23.65;63.48;98146.63;4998769;28;20743;-24
2023/09/25 11:13:00;;;;;;;8.73;3.13;;;;;;;23.65;63.57;98144.06;5008088;28;20676;-23
2023/09/25 11:15:27;;;;;;;5.00;2.43;;;;;;;23.67;63.65;98151.81;5003593;28;20263;-24
2023/09/25 11:17:57;;;;;;;5.73;2.60;;;;;;;23.68;63.68;98148.44;5005292;28;20222;-23
2023/09/25 11:20:29;;;;;;;7.33;2.93;;;;;;;23.67;64.10;98145.00;5011888;28;20269;-23
2023/09/25 11:23:08;;;;;;;6.53;2.93;;;;;;;23.67;63.90;98137.28;5003748;28;20211;-24
2023/09/25 11:25:51;;;;;;;8.90;2.83;;;;;;;23.67;63.81;98141.53;5000689;28;20206;-24
2023/09/25 11:28:24;;;;;;;4.97;2.80;;;;;;;23.66;63.58;98143.28;4990278;28;20226;-23
2023/09/25 11:30:50;;;;;;;5.23;2.73;;;;;;;23.65;63.66;98140.66;5010119;28;20224;-23
2023/09/25 11:33:19;;;;;;;4.20;2.67;;;;;;;23.65;63.56;98138.94;5007692;28;20218;-24
2023/09/25 11:35:49;;;;;;;7.53;2.80;;;;;;;23.60;63.96;98129.38;5005050;28;20234;-24